Terminal Aerodrome Forecast
Issued by NWS Pueblo, CO

Home | Current Version | Previous Version | Text Only | Print | Product List | Glossary On
Versions: 1 2 3 4 5 6 7 8 9 10 11 12 13 14 15 16 17
000
FTUS45 KPUB 030542
TAFCOS
TAF
KCOS 030542Z 0306/0406 16008KT P6SM FEW020 OVC035
      TEMPO 0306/0308 5SM -SHSN BR BKN020
     FM030800 VRB06KT P6SM SCT030 BKN090
     FM031400 VRB06KT P6SM FEW120 SCT200
     FM031800 13008KT P6SM FEW200=

USA.gov is the U.S. government's official web portal to all federal, state and local government web resources and services.